• Join FlightAware (Why Join?)
  • Login
  • US Flag 
06:43PM EDT


 

Airport Tracker/Info


-or-


 

Live Flight TrackerFlight Track Log ✈ SKW5516 ✈ 06-Jun-2013 ✈ KDEN - KBOI

Flight Track Log - Related Links

Times and Time Zones

All times are in EDT time to prevent confusion due to time zone crossing. See the SKW5516 flight status page for this flight to view local times or setup timezone preferences in your user account.

Time Position Orientation Groundspeed Altitude Reporting Facility
EDT Latitude Longitude Course Direction KTS MPH feet Rate Location/Type
10:30AM 39.8456 -104.7667 303° West 181 208 6,900  Level Denver Center
10:31AM 39.8831 -104.8428 303° West 228 262 9,400 2,220 Climbing Denver Center
10:32AM 39.9203 -104.9256 300° West 264 304 11,500 2,220 Climbing Denver Center
10:33AM 39.9506 -105.0228 292° West 287 330 14,100 2,580 Climbing Denver Center
10:34AM 39.9625 -105.1356 278° West 296 341 16,900 2,460 Climbing Denver Center
10:35AM 39.9756 -105.2461 279° West 306 352 19,200 1,980 Climbing Denver Center
10:36AM 39.9833 -105.3681 275° West 315 362 21,100 1,500 Climbing Denver Center
10:37AM 39.9800 -105.4953 268° West 349 402 22,300 1,440 Climbing Denver Center
10:38AM 39.9758 -105.6183 268° West 357 411 24,100 1,680 Climbing Denver Center
10:39AM 39.9725 -105.7786 268° West 372 428 25,900 900 Climbing Denver Center
10:40AM 39.9733 -105.9189 270° West 385 443 26,000  Climbing Denver Center
10:41AM 39.9831 -106.0625 275° West 398 458 26,000 120 Level Denver Center
10:43AM 39.9917 -106.2311 274° West 390 449 26,300 540 Climbing Denver Center
10:44AM 39.9997 -106.3742 274° West 397 457 27,300 1,020 Climbing Denver Center
10:45AM 40.0386 -106.5314 288° West 411 473 28,500 1,140 Climbing Denver Center
10:46AM 40.0900 -106.6572 298° West 410 472 29,700 1,200 Climbing Denver Center
10:47AM 40.1503 -106.8053 298° West 413 475 31,000 1,140 Climbing Denver Center
10:48AM 40.1994 -106.9342 297° West 415 478 32,100 1,020 Climbing Denver Center
10:49AM 40.2606 -107.0850 298° West 420 483 33,200 960 Climbing Denver Center
10:50AM 40.3117 -107.2161 297° West 423 487 34,200 960 Climbing Denver Center
10:51AM 40.3725 -107.3681 298° West 423 487 35,300 840 Climbing Denver Center
10:52AM 40.4239 -107.5000 297° West 424 488 36,000 300 Climbing Denver Center
10:53AM 40.4828 -107.6536 297° West 424 488 36,000  Level Denver Center
10:54AM 40.5350 -107.7872 297° West 426 490 36,000  Level Denver Center
10:55AM 40.5958 -107.9447 297° West 429 494 36,000  Level Denver Center
10:57AM 40.7078 -108.2364 297° West 428 493 36,000  Level Denver Center
10:58AM 40.7589 -108.3700 297° West 426 490 36,000  Level Denver Center
10:59AM 40.8172 -108.5278 296° West 427 491 36,000  Level Denver Center
11:00AM 40.8692 -108.6636 297° West 432 497 36,000  Level Denver Center
11:01AM 40.9275 -108.8206 296° West 429 494 36,000  Level Denver Center
11:02AM 40.9864 -108.9792 296° West 429 494 36,000  Level Salt Lake Center
11:03AM 41.0364 -109.1139 296° West 425 489 36,000  Level Salt Lake Center
11:04AM 41.0936 -109.2717 296° West 422 486 36,000  Level Salt Lake Center
11:05AM 41.1431 -109.4075 296° West 424 488 36,000  Level Salt Lake Center
11:06AM 41.1928 -109.5428 296° West 424 488 36,000  Level Salt Lake Center
11:08AM 41.2494 -109.7006 296° West 422 486 36,000  Level Salt Lake Center
11:09AM 41.2992 -109.8353 296° West 422 486 36,000  Level Salt Lake Center
11:10AM 41.3550 -109.9939 295° West 422 486 36,000  Level Salt Lake Center
11:11AM 41.4042 -110.1297 296° West 424 488 36,000  Level Salt Lake Center
11:12AM 41.4608 -110.2886 295° West 425 489 36,000  Level Salt Lake Center
11:13AM 41.5089 -110.4250 295° West 424 488 36,000  Level Salt Lake Center
11:14AM 41.5647 -110.5853 295° West 426 490 36,000  Level Salt Lake Center
11:15AM 41.6128 -110.7231 295° West 428 493 36,000  Level Salt Lake Center
11:16AM 41.6714 -110.8842 296° West 432 497 36,000  Level Salt Lake Center
11:17AM 41.7175 -111.0197 295° West 432 497 36,000  Level Salt Lake Center
11:18AM 41.7667 -111.1642 295° West 429 494 36,000  Level Salt Lake Center
11:19AM 41.8161 -111.3094 295° West 431 496 36,000  Level Salt Lake Center
11:20AM 41.8761 -111.4833 295° West 431 496 36,000  Level Salt Lake Center
11:21AM 41.9256 -111.6281 295° West 430 495 36,000  Level Salt Lake Center
11:22AM 41.9733 -111.7728 294° West 427 491 36,000  Level Salt Lake Center
11:23AM 42.0211 -111.9147 294° West 422 486 36,000  Level Salt Lake Center
11:24AM 42.0697 -112.0600 294° West 426 490 36,000  Level Salt Lake Center
11:25AM 42.1275 -112.2297 295° West 422 486 36,000  Level Salt Lake Center
11:26AM 42.1733 -112.3739 293° West 421 484 36,000  Level Salt Lake Center
11:27AM 42.2231 -112.5136 296° West 418 481 36,000  Level Salt Lake Center
11:28AM 42.2764 -112.6522 298° West 417 480 36,000  Level Salt Lake Center
11:29AM 42.3300 -112.7897 298° West 416 479 36,000  Level Salt Lake Center
11:30AM 42.3822 -112.9281 297° West 416 479 36,000  Level Salt Lake Center
11:31AM 42.4447 -113.0936 297° West 413 475 36,000  Level Salt Lake Center
11:32AM 42.4975 -113.2325 297° West 413 475 36,000 -120 Level Salt Lake Center
11:33AM 42.5497 -113.3719 297° West 415 478 35,800 -540 Descending Salt Lake Center
11:34AM 42.6028 -113.5128 297° West 420 483 35,000 -420 Descending Salt Lake Center
11:35AM 42.6575 -113.6578 297° West 432 497 35,000  Level Salt Lake Center
11:36AM 42.7164 -113.8194 296° West 426 490 35,000  Level Salt Lake Center
11:37AM 42.7706 -113.9767 295° West 422 486 35,000 -480 Level Salt Lake Center
11:39AM 42.8231 -114.1175 297° West 419 482 34,100 -1,620 Descending Salt Lake Center
11:40AM 42.8764 -114.2658 296° West 433 498 31,700 -2,280 Descending Salt Lake Center
11:41AM 42.9317 -114.4136 297° West 425 489 29,400 -2,340 Descending Salt Lake Center
11:42AM 42.9883 -114.5683 297° West 404 465 26,900 -2,280 Descending Salt Lake Center
11:43AM 43.0417 -114.6875 302° West 379 436 24,800 -2,280 Descending Salt Lake Center
11:44AM 43.1136 -114.8139 308° West 372 428 22,300 -2,280 Descending Salt Lake Center
11:45AM 43.1714 -114.9200 307° West 362 417 20,200 -2,220 Descending Salt Lake Center
11:46AM 43.2256 -115.0442 301° West 355 409 17,800 -2,100 Descending Salt Lake Center
11:47AM 43.2622 -115.1694 292° West 341 392 15,900 -1,860 Descending Salt Lake Center
11:48AM 43.2972 -115.2917 292° West 333 383 14,000 -1,440 Descending Salt Lake Center
11:49AM 43.3331 -115.4122 292° West 351 404 13,000 -720 Descending Salt Lake Center
11:50AM 43.3683 -115.5392 291° West 341 392 12,600 -780 Descending Salt Lake Center
11:51AM 43.4097 -115.6567 296° West 335 386 11,400 -1,260 Descending Salt Lake Center
11:52AM 43.4647 -115.7614 306° West 324 373 10,000 -720 Descending Salt Lake Center
11:53AM 43.5117 -115.8472 307° West 272 313 10,000 -120 Level Salt Lake Center
11:54AM 43.5556 -115.9389 303° West 273 314 9,800 -780 Descending Salt Lake Center
11:55AM 43.5814 -116.0325 291° West 252 290 8,500 -1,200 Descending Salt Lake Center
11:56AM 43.6050 -116.1194 291° West 233 268 7,400 -1,440 Descending Salt Lake Center
11:57AM 43.6269 -116.2022 290° West 221 254 5,600 -1,440 Descending Salt Lake Center
11:58AM 43.6378 -116.2767 281° West 213 245 4,500 -720 Descending Salt Lake Center
11:59AM 43.5936 -116.3053 205° Southwest 177 204 4,200 -600 Descending Salt Lake Center
12:00PM 43.5786 -116.2617 115° Southeast 156 180 3,300 -900 Descending Salt Lake Center